Miami, West Virginia
Current Conditions -  °F | °C
As of 2:54 PM on Thursday 29 Jan 2015 (Local Time) from KCRW Reporting Station
Overcast Overcast  
Wind Chill: 50°   Ceiling: 4000
Heat Index: 50°   Visibility: 10mi
Dew Point: 35°   Wind: 14mph
Humidity: 57%   Direction: 220°SW
Pressure: 29.87"   Gusts: NA
Location:  38.15°N, 81.45°W
Report Text: KCRW 291954Z 22012KT 10SM OVC040 10/02 A2987 RMK AO2 PK WND 21031/1904 SLP120 T01000017
Loading
Personal Weather Stations






























Interactive Weather Map New forecast layout! Learn more

10-Day Weather Forecast

Advertisements
Track Severe Weather on mobile